sensor_id;sensor_type;location;lat;lon;timestamp;P1;durP1;ratioP1;P2;durP2;ratioP2
19780;SDS011;10050;55.492;13.506;2023-03-23T00:01:15;23.57;;;17.77;;
19780;SDS011;10050;55.492;13.506;2023-03-23T00:03:44;23.37;;;18.60;;
19780;SDS011;10050;55.492;13.506;2023-03-23T00:06:15;22.60;;;17.20;;
19780;SDS011;10050;55.492;13.506;2023-03-23T00:08:43;21.17;;;17.73;;
19780;SDS011;10050;55.492;13.506;2023-03-23T00:11:14;24.13;;;17.73;;
19780;SDS011;10050;55.492;13.506;2023-03-23T00:13:45;24.27;;;18.77;;
19780;SDS011;10050;55.492;13.506;2023-03-23T00:16:12;22.37;;;17.70;;
19780;SDS011;10050;55.492;13.506;2023-03-23T00:18:54;23.20;;;18.10;;
19780;SDS011;10050;55.492;13.506;2023-03-23T00:21:21;22.77;;;17.50;;
19780;SDS011;10050;55.492;13.506;2023-03-23T00:23:57;23.27;;;17.53;;
19780;SDS011;10050;55.492;13.506;2023-03-23T00:26:28;24.53;;;17.10;;
19780;SDS011;10050;55.492;13.506;2023-03-23T00:28:54;22.97;;;17.03;;
19780;SDS011;10050;55.492;13.506;2023-03-23T00:31:21;21.67;;;15.77;;
19780;SDS011;10050;55.492;13.506;2023-03-23T00:33:46;19.67;;;14.53;;
19780;SDS011;10050;55.492;13.506;2023-03-23T00:36:12;19.80;;;14.63;;
19780;SDS011;10050;55.492;13.506;2023-03-23T00:38:40;19.00;;;13.40;;
19780;SDS011;10050;55.492;13.506;2023-03-23T00:41:09;16.60;;;13.53;;
19780;SDS011;10050;55.492;13.506;2023-03-23T00:43:36;18.50;;;12.90;;
19780;SDS011;10050;55.492;13.506;2023-03-23T00:46:04;19.13;;;13.30;;
19780;SDS011;10050;55.492;13.506;2023-03-23T00:48:35;17.40;;;13.17;;
19780;SDS011;10050;55.492;13.506;2023-03-23T00:51:05;16.30;;;13.57;;
19780;SDS011;10050;55.492;13.506;2023-03-23T00:53:35;15.93;;;11.80;;
19780;SDS011;10050;55.492;13.506;2023-03-23T00:56:01;17.63;;;12.13;;
19780;SDS011;10050;55.492;13.506;2023-03-23T00:58:26;17.57;;;12.23;;
19780;SDS011;10050;55.492;13.506;2023-03-23T01:00:52;18.53;;;12.67;;
19780;SDS011;10050;55.492;13.506;2023-03-23T01:03:18;13.90;;;11.33;;
19780;SDS011;10050;55.492;13.506;2023-03-23T01:05:44;19.47;;;12.50;;
19780;SDS011;10050;55.492;13.506;2023-03-23T01:08:12;13.80;;;11.23;;
19780;SDS011;10050;55.492;13.506;2023-03-23T01:10:41;16.30;;;12.23;;
19780;SDS011;10050;55.492;13.506;2023-03-23T01:13:07;18.00;;;11.60;;
19780;SDS011;10050;55.492;13.506;2023-03-23T01:15:32;14.10;;;11.73;;
19780;SDS011;10050;55.492;13.506;2023-03-23T01:17:58;16.97;;;12.63;;
19780;SDS011;10050;55.492;13.506;2023-03-23T01:20:24;18.13;;;12.37;;
19780;SDS011;10050;55.492;13.506;2023-03-23T01:22:51;16.77;;;13.10;;
19780;SDS011;10050;55.492;13.506;2023-03-23T01:25:18;18.53;;;13.17;;
19780;SDS011;10050;55.492;13.506;2023-03-23T01:27:44;17.73;;;12.63;;
19780;SDS011;10050;55.492;13.506;2023-03-23T01:30:11;18.27;;;12.63;;
19780;SDS011;10050;55.492;13.506;2023-03-23T01:32:37;22.43;;;13.57;;
19780;SDS011;10050;55.492;13.506;2023-03-23T01:35:04;19.40;;;13.27;;
19780;SDS011;10050;55.492;13.506;2023-03-23T01:37:30;18.40;;;13.63;;
19780;SDS011;10050;55.492;13.506;2023-03-23T01:39:56;19.23;;;13.73;;
19780;SDS011;10050;55.492;13.506;2023-03-23T01:42:29;18.63;;;14.40;;
19780;SDS011;10050;55.492;13.506;2023-03-23T01:47:47;19.93;;;14.47;;
19780;SDS011;10050;55.492;13.506;2023-03-23T01:50:21;20.23;;;15.00;;
19780;SDS011;10050;55.492;13.506;2023-03-23T01:52:49;24.10;;;14.53;;
19780;SDS011;10050;55.492;13.506;2023-03-23T01:55:18;17.70;;;13.50;;
19780;SDS011;10050;55.492;13.506;2023-03-23T01:57:45;23.80;;;14.60;;
19780;SDS011;10050;55.492;13.506;2023-03-23T02:00:12;18.47;;;14.03;;
19780;SDS011;10050;55.492;13.506;2023-03-23T02:02:42;20.50;;;14.90;;
19780;SDS011;10050;55.492;13.506;2023-03-23T02:05:12;21.97;;;14.27;;
19780;SDS011;10050;55.492;13.506;2023-03-23T02:07:40;19.90;;;14.77;;
19780;SDS011;10050;55.492;13.506;2023-03-23T02:10:07;20.57;;;15.00;;
19780;SDS011;10050;55.492;13.506;2023-03-23T02:12:33;24.30;;;15.30;;
19780;SDS011;10050;55.492;13.506;2023-03-23T02:14:59;22.80;;;15.93;;
19780;SDS011;10050;55.492;13.506;2023-03-23T02:17:48;24.67;;;15.93;;
19780;SDS011;10050;55.492;13.506;2023-03-23T02:23:13;26.13;;;15.93;;
19780;SDS011;10050;55.492;13.506;2023-03-23T02:34:25;22.97;;;15.83;;
19780;SDS011;10050;55.492;13.506;2023-03-23T02:39:26;23.37;;;15.80;;
19780;SDS011;10050;55.492;13.506;2023-03-23T02:42:05;23.40;;;15.77;;
19780;SDS011;10050;55.492;13.506;2023-03-23T02:44:35;23.20;;;15.20;;
19780;SDS011;10050;55.492;13.506;2023-03-23T02:47:04;22.17;;;16.23;;
19780;SDS011;10050;55.492;13.506;2023-03-23T02:49:34;21.27;;;15.83;;
19780;SDS011;10050;55.492;13.506;2023-03-23T02:52:08;21.03;;;15.67;;
19780;SDS011;10050;55.492;13.506;2023-03-23T02:54:39;26.33;;;15.53;;
19780;SDS011;10050;55.492;13.506;2023-03-23T02:57:11;23.27;;;15.17;;
19780;SDS011;10050;55.492;13.506;2023-03-23T02:59:36;24.80;;;15.80;;
19780;SDS011;10050;55.492;13.506;2023-03-23T03:04:38;19.90;;;15.10;;
19780;SDS011;10050;55.492;13.506;2023-03-23T03:07:15;24.53;;;16.23;;
19780;SDS011;10050;55.492;13.506;2023-03-23T03:10:03;23.13;;;16.40;;
19780;SDS011;10050;55.492;13.506;2023-03-23T03:12:44;25.20;;;16.13;;
19780;SDS011;10050;55.492;13.506;2023-03-23T03:18:00;25.03;;;16.17;;
19780;SDS011;10050;55.492;13.506;2023-03-23T03:20:35;24.00;;;17.07;;
19780;SDS011;10050;55.492;13.506;2023-03-23T03:23:05;23.07;;;16.23;;
19780;SDS011;10050;55.492;13.506;2023-03-23T03:25:32;24.70;;;16.83;;
19780;SDS011;10050;55.492;13.506;2023-03-23T03:27:59;26.60;;;17.70;;
19780;SDS011;10050;55.492;13.506;2023-03-23T03:30:33;23.80;;;17.13;;
19780;SDS011;10050;55.492;13.506;2023-03-23T03:33:02;28.50;;;17.30;;
19780;SDS011;10050;55.492;13.506;2023-03-23T03:35:29;27.20;;;18.83;;
19780;SDS011;10050;55.492;13.506;2023-03-23T03:37:56;26.07;;;17.00;;
19780;SDS011;10050;55.492;13.506;2023-03-23T03:40:29;25.17;;;16.63;;
19780;SDS011;10050;55.492;13.506;2023-03-23T03:42:55;28.70;;;18.00;;
19780;SDS011;10050;55.492;13.506;2023-03-23T03:45:20;24.47;;;17.97;;
19780;SDS011;10050;55.492;13.506;2023-03-23T03:47:46;26.27;;;18.10;;
19780;SDS011;10050;55.492;13.506;2023-03-23T03:50:12;31.50;;;18.27;;
19780;SDS011;10050;55.492;13.506;2023-03-23T03:52:38;24.00;;;17.53;;
19780;SDS011;10050;55.492;13.506;2023-03-23T03:55:05;27.63;;;17.83;;
19780;SDS011;10050;55.492;13.506;2023-03-23T03:57:32;28.13;;;17.87;;
19780;SDS011;10050;55.492;13.506;2023-03-23T03:59:59;28.37;;;17.53;;
19780;SDS011;10050;55.492;13.506;2023-03-23T04:02:25;28.30;;;17.30;;
19780;SDS011;10050;55.492;13.506;2023-03-23T04:04:53;29.73;;;18.43;;
19780;SDS011;10050;55.492;13.506;2023-03-23T04:07:19;25.27;;;18.40;;
19780;SDS011;10050;55.492;13.506;2023-03-23T04:09:51;24.30;;;17.17;;
19780;SDS011;10050;55.492;13.506;2023-03-23T04:12:17;23.73;;;16.60;;
19780;SDS011;10050;55.492;13.506;2023-03-23T04:14:42;23.47;;;16.03;;
19780;SDS011;10050;55.492;13.506;2023-03-23T04:17:08;23.73;;;16.70;;
19780;SDS011;10050;55.492;13.506;2023-03-23T04:19:35;23.00;;;16.13;;
19780;SDS011;10050;55.492;13.506;2023-03-23T04:22:02;28.00;;;16.43;;
19780;SDS011;10050;55.492;13.506;2023-03-23T04:24:32;19.50;;;14.50;;
19780;SDS011;10050;55.492;13.506;2023-03-23T04:26:58;21.80;;;14.77;;
19780;SDS011;10050;55.492;13.506;2023-03-23T04:29:25;20.70;;;14.50;;
19780;SDS011;10050;55.492;13.506;2023-03-23T04:31:51;20.00;;;15.03;;
19780;SDS011;10050;55.492;13.506;2023-03-23T04:34:18;22.83;;;14.63;;
19780;SDS011;10050;55.492;13.506;2023-03-23T04:36:43;23.80;;;15.43;;
19780;SDS011;10050;55.492;13.506;2023-03-23T04:39:11;18.27;;;13.37;;
19780;SDS011;10050;55.492;13.506;2023-03-23T04:41:38;21.13;;;14.57;;
19780;SDS011;10050;55.492;13.506;2023-03-23T04:44:05;20.33;;;14.13;;
19780;SDS011;10050;55.492;13.506;2023-03-23T04:46:31;19.43;;;12.80;;
19780;SDS011;10050;55.492;13.506;2023-03-23T04:48:58;21.60;;;14.83;;
19780;SDS011;10050;55.492;13.506;2023-03-23T04:51:24;18.93;;;14.00;;
19780;SDS011;10050;55.492;13.506;2023-03-23T04:53:52;19.97;;;13.80;;
19780;SDS011;10050;55.492;13.506;2023-03-23T04:56:18;17.93;;;13.50;;
19780;SDS011;10050;55.492;13.506;2023-03-23T04:58:44;19.07;;;14.00;;
19780;SDS011;10050;55.492;13.506;2023-03-23T05:01:11;22.17;;;14.17;;
19780;SDS011;10050;55.492;13.506;2023-03-23T05:03:40;16.40;;;12.77;;
19780;SDS011;10050;55.492;13.506;2023-03-23T05:06:06;20.87;;;13.67;;
19780;SDS011;10050;55.492;13.506;2023-03-23T05:08:35;15.77;;;12.03;;
19780;SDS011;10050;55.492;13.506;2023-03-23T05:11:03;16.77;;;11.87;;
19780;SDS011;10050;55.492;13.506;2023-03-23T05:13:30;19.87;;;11.83;;
19780;SDS011;10050;55.492;13.506;2023-03-23T05:15:56;16.67;;;11.13;;
19780;SDS011;10050;55.492;13.506;2023-03-23T05:18:23;14.77;;;10.90;;
19780;SDS011;10050;55.492;13.506;2023-03-23T05:20:52;14.60;;;10.40;;
19780;SDS011;10050;55.492;13.506;2023-03-23T05:23:18;17.13;;;10.07;;
19780;SDS011;10050;55.492;13.506;2023-03-23T05:25:53;17.97;;;11.27;;
19780;SDS011;10050;55.492;13.506;2023-03-23T05:28:20;17.30;;;11.50;;
19780;SDS011;10050;55.492;13.506;2023-03-23T05:30:47;18.03;;;11.53;;
19780;SDS011;10050;55.492;13.506;2023-03-23T05:33:13;16.70;;;10.77;;
19780;SDS011;10050;55.492;13.506;2023-03-23T05:35:41;17.40;;;10.90;;
19780;SDS011;10050;55.492;13.506;2023-03-23T05:38:09;20.03;;;11.70;;
19780;SDS011;10050;55.492;13.506;2023-03-23T05:40:35;16.83;;;11.57;;
19780;SDS011;10050;55.492;13.506;2023-03-23T05:43:01;16.53;;;11.37;;
19780;SDS011;10050;55.492;13.506;2023-03-23T05:45:29;19.50;;;11.83;;
19780;SDS011;10050;55.492;13.506;2023-03-23T05:47:54;19.27;;;12.00;;
19780;SDS011;10050;55.492;13.506;2023-03-23T05:50:21;15.73;;;11.57;;
19780;SDS011;10050;55.492;13.506;2023-03-23T05:52:47;17.07;;;11.50;;
19780;SDS011;10050;55.492;13.506;2023-03-23T05:55:13;20.97;;;11.67;;
19780;SDS011;10050;55.492;13.506;2023-03-23T05:57:40;18.60;;;11.43;;
19780;SDS011;10050;55.492;13.506;2023-03-23T06:00:06;19.67;;;12.13;;
19780;SDS011;10050;55.492;13.506;2023-03-23T06:02:47;16.57;;;11.97;;
19780;SDS011;10050;55.492;13.506;2023-03-23T06:05:14;20.13;;;12.60;;
19780;SDS011;10050;55.492;13.506;2023-03-23T06:07:41;18.63;;;12.63;;
19780;SDS011;10050;55.492;13.506;2023-03-23T06:10:08;17.57;;;11.70;;
19780;SDS011;10050;55.492;13.506;2023-03-23T06:12:36;20.03;;;11.50;;
19780;SDS011;10050;55.492;13.506;2023-03-23T06:15:04;19.57;;;12.07;;
19780;SDS011;10050;55.492;13.506;2023-03-23T06:17:31;17.63;;;12.37;;
19780;SDS011;10050;55.492;13.506;2023-03-23T06:19:58;18.30;;;11.70;;
19780;SDS011;10050;55.492;13.506;2023-03-23T06:22:23;18.33;;;12.67;;
19780;SDS011;10050;55.492;13.506;2023-03-23T06:24:52;15.73;;;12.83;;
19780;SDS011;10050;55.492;13.506;2023-03-23T06:27:17;20.87;;;13.73;;
19780;SDS011;10050;55.492;13.506;2023-03-23T06:29:43;17.20;;;13.13;;
19780;SDS011;10050;55.492;13.506;2023-03-23T06:32:09;17.57;;;12.07;;
19780;SDS011;10050;55.492;13.506;2023-03-23T06:34:37;19.20;;;12.90;;
19780;SDS011;10050;55.492;13.506;2023-03-23T06:37:04;17.70;;;12.80;;
19780;SDS011;10050;55.492;13.506;2023-03-23T06:39:30;16.00;;;12.73;;
19780;SDS011;10050;55.492;13.506;2023-03-23T06:41:56;20.87;;;12.90;;
19780;SDS011;10050;55.492;13.506;2023-03-23T06:44:24;19.27;;;12.90;;
19780;SDS011;10050;55.492;13.506;2023-03-23T06:46:50;15.30;;;11.33;;
19780;SDS011;10050;55.492;13.506;2023-03-23T06:49:16;20.77;;;12.97;;
19780;SDS011;10050;55.492;13.506;2023-03-23T06:51:41;16.57;;;12.60;;
19780;SDS011;10050;55.492;13.506;2023-03-23T06:54:07;20.13;;;13.07;;
19780;SDS011;10050;55.492;13.506;2023-03-23T06:56:33;20.07;;;12.13;;
19780;SDS011;10050;55.492;13.506;2023-03-23T06:58:59;17.03;;;12.03;;
19780;SDS011;10050;55.492;13.506;2023-03-23T07:01:25;17.23;;;11.67;;
19780;SDS011;10050;55.492;13.506;2023-03-23T07:03:53;17.07;;;12.37;;
19780;SDS011;10050;55.492;13.506;2023-03-23T07:06:20;17.30;;;11.20;;
19780;SDS011;10050;55.492;13.506;2023-03-23T07:08:49;17.73;;;11.83;;
19780;SDS011;10050;55.492;13.506;2023-03-23T07:11:14;15.30;;;10.70;;
19780;SDS011;10050;55.492;13.506;2023-03-23T07:13:40;15.50;;;10.30;;
19780;SDS011;10050;55.492;13.506;2023-03-23T07:16:06;15.87;;;10.90;;
19780;SDS011;10050;55.492;13.506;2023-03-23T07:18:35;12.47;;;9.77;;
19780;SDS011;10050;55.492;13.506;2023-03-23T07:21:01;16.93;;;9.90;;
19780;SDS011;10050;55.492;13.506;2023-03-23T07:23:28;12.17;;;8.93;;
19780;SDS011;10050;55.492;13.506;2023-03-23T07:25:55;13.63;;;9.10;;
19780;SDS011;10050;55.492;13.506;2023-03-23T07:28:21;13.63;;;8.87;;
19780;SDS011;10050;55.492;13.506;2023-03-23T07:30:47;11.97;;;9.00;;
19780;SDS011;10050;55.492;13.506;2023-03-23T07:33:13;10.83;;;8.87;;
19780;SDS011;10050;55.492;13.506;2023-03-23T07:35:42;9.03;;;7.40;;
19780;SDS011;10050;55.492;13.506;2023-03-23T07:38:08;10.43;;;7.93;;
19780;SDS011;10050;55.492;13.506;2023-03-23T07:40:34;10.27;;;6.90;;
19780;SDS011;10050;55.492;13.506;2023-03-23T07:43:03;9.87;;;7.13;;
19780;SDS011;10050;55.492;13.506;2023-03-23T07:45:29;9.50;;;7.00;;
19780;SDS011;10050;55.492;13.506;2023-03-23T07:47:55;8.33;;;7.50;;
19780;SDS011;10050;55.492;13.506;2023-03-23T07:50:21;8.83;;;7.20;;
19780;SDS011;10050;55.492;13.506;2023-03-23T07:52:49;10.80;;;6.60;;
19780;SDS011;10050;55.492;13.506;2023-03-23T07:55:23;9.03;;;6.73;;
19780;SDS011;10050;55.492;13.506;2023-03-23T07:57:49;8.93;;;7.10;;
19780;SDS011;10050;55.492;13.506;2023-03-23T08:00:16;10.10;;;7.13;;
19780;SDS011;10050;55.492;13.506;2023-03-23T08:02:52;11.47;;;6.93;;
19780;SDS011;10050;55.492;13.506;2023-03-23T08:05:22;13.20;;;6.70;;
19780;SDS011;10050;55.492;13.506;2023-03-23T08:07:51;8.43;;;5.93;;
19780;SDS011;10050;55.492;13.506;2023-03-23T08:10:19;8.43;;;7.07;;
19780;SDS011;10050;55.492;13.506;2023-03-23T08:12:49;7.90;;;6.50;;
19780;SDS011;10050;55.492;13.506;2023-03-23T08:15:16;7.87;;;6.43;;
19780;SDS011;10050;55.492;13.506;2023-03-23T08:17:43;6.53;;;5.13;;
19780;SDS011;10050;55.492;13.506;2023-03-23T08:20:10;6.83;;;5.67;;
19780;SDS011;10050;55.492;13.506;2023-03-23T08:22:38;6.83;;;5.43;;
19780;SDS011;10050;55.492;13.506;2023-03-23T08:25:06;5.87;;;4.23;;
19780;SDS011;10050;55.492;13.506;2023-03-23T08:27:33;5.80;;;3.77;;
19780;SDS011;10050;55.492;13.506;2023-03-23T08:29:59;4.27;;;3.50;;
19780;SDS011;10050;55.492;13.506;2023-03-23T08:32:25;3.27;;;2.97;;
19780;SDS011;10050;55.492;13.506;2023-03-23T08:34:51;5.43;;;3.13;;
19780;SDS011;10050;55.492;13.506;2023-03-23T08:37:17;3.57;;;2.70;;
19780;SDS011;10050;55.492;13.506;2023-03-23T08:39:43;2.43;;;2.33;;
19780;SDS011;10050;55.492;13.506;2023-03-23T08:42:09;4.63;;;2.43;;
19780;SDS011;10050;55.492;13.506;2023-03-23T08:44:36;2.53;;;2.33;;
19780;SDS011;10050;55.492;13.506;2023-03-23T08:47:02;4.53;;;2.60;;
19780;SDS011;10050;55.492;13.506;2023-03-23T08:49:30;4.70;;;2.13;;
19780;SDS011;10050;55.492;13.506;2023-03-23T08:51:57;8.03;;;2.10;;
19780;SDS011;10050;55.492;13.506;2023-03-23T08:54:23;2.23;;;2.03;;
19780;SDS011;10050;55.492;13.506;2023-03-23T08:56:49;1.97;;;1.77;;
19780;SDS011;10050;55.492;13.506;2023-03-23T08:59:15;1.60;;;1.50;;
19780;SDS011;10050;55.492;13.506;2023-03-23T09:01:41;1.20;;;1.17;;
19780;SDS011;10050;55.492;13.506;2023-03-23T09:04:07;2.27;;;1.63;;
19780;SDS011;10050;55.492;13.506;2023-03-23T09:06:34;1.57;;;1.47;;
19780;SDS011;10050;55.492;13.506;2023-03-23T09:09:03;2.20;;;1.43;;
19780;SDS011;10050;55.492;13.506;2023-03-23T09:11:33;1.40;;;1.30;;
19780;SDS011;10050;55.492;13.506;2023-03-23T09:13:59;2.70;;;1.20;;
19780;SDS011;10050;55.492;13.506;2023-03-23T09:16:26;2.40;;;1.50;;
19780;SDS011;10050;55.492;13.506;2023-03-23T09:18:51;2.43;;;1.77;;
19780;SDS011;10050;55.492;13.506;2023-03-23T09:21:17;1.73;;;1.50;;
19780;SDS011;10050;55.492;13.506;2023-03-23T09:23:43;3.77;;;1.63;;
19780;SDS011;10050;55.492;13.506;2023-03-23T09:26:09;2.80;;;1.60;;
19780;SDS011;10050;55.492;13.506;2023-03-23T09:28:35;1.67;;;1.57;;
19780;SDS011;10050;55.492;13.506;2023-03-23T09:31:01;2.30;;;1.90;;
19780;SDS011;10050;55.492;13.506;2023-03-23T09:33:27;1.60;;;1.50;;
19780;SDS011;10050;55.492;13.506;2023-03-23T09:35:57;1.77;;;1.67;;
19780;SDS011;10050;55.492;13.506;2023-03-23T09:38:23;1.97;;;1.50;;
19780;SDS011;10050;55.492;13.506;2023-03-23T09:49:23;2.13;;;1.40;;
19780;SDS011;10050;55.492;13.506;2023-03-23T09:51:57;2.83;;;1.73;;
19780;SDS011;10050;55.492;13.506;2023-03-23T09:54:38;2.83;;;1.93;;
19780;SDS011;10050;55.492;13.506;2023-03-23T10:00:00;2.63;;;1.80;;
19780;SDS011;10050;55.492;13.506;2023-03-23T10:05:03;4.83;;;1.90;;
19780;SDS011;10050;55.492;13.506;2023-03-23T10:07:47;2.67;;;1.90;;
19780;SDS011;10050;55.492;13.506;2023-03-23T10:10:13;3.63;;;2.10;;
19780;SDS011;10050;55.492;13.506;2023-03-23T10:15:17;3.90;;;1.67;;
19780;SDS011;10050;55.492;13.506;2023-03-23T10:22:42;3.87;;;1.50;;
19780;SDS011;10050;55.492;13.506;2023-03-23T10:25:32;2.27;;;1.40;;
19780;SDS011;10050;55.492;13.506;2023-03-23T10:28:04;2.60;;;1.50;;
19780;SDS011;10050;55.492;13.506;2023-03-23T10:30:39;2.13;;;1.93;;
19780;SDS011;10050;55.492;13.506;2023-03-23T10:36:05;2.10;;;1.90;;
19780;SDS011;10050;55.492;13.506;2023-03-23T10:38:37;4.50;;;2.40;;
19780;SDS011;10050;55.492;13.506;2023-03-23T10:41:16;3.20;;;2.67;;
19780;SDS011;10050;55.492;13.506;2023-03-23T10:43:43;3.93;;;3.50;;
19780;SDS011;10050;55.492;13.506;2023-03-23T10:46:22;3.20;;;2.90;;
19780;SDS011;10050;55.492;13.506;2023-03-23T10:49:00;4.20;;;3.57;;
19780;SDS011;10050;55.492;13.506;2023-03-23T10:51:32;6.00;;;4.30;;
19780;SDS011;10050;55.492;13.506;2023-03-23T10:54:02;7.53;;;4.70;;
19780;SDS011;10050;55.492;13.506;2023-03-23T10:56:35;4.57;;;4.17;;
19780;SDS011;10050;55.492;13.506;2023-03-23T10:59:18;4.73;;;4.33;;
19780;SDS011;10050;55.492;13.506;2023-03-23T11:01:51;6.13;;;5.23;;
19780;SDS011;10050;55.492;13.506;2023-03-23T11:04:19;7.33;;;6.00;;
19780;SDS011;10050;55.492;13.506;2023-03-23T11:06:49;9.50;;;6.50;;
19780;SDS011;10050;55.492;13.506;2023-03-23T11:09:21;8.23;;;6.87;;
19780;SDS011;10050;55.492;13.506;2023-03-23T11:11:57;12.80;;;7.50;;
19780;SDS011;10050;55.492;13.506;2023-03-23T11:14:34;8.73;;;6.83;;
19780;SDS011;10050;55.492;13.506;2023-03-23T11:17:04;9.60;;;7.50;;
19780;SDS011;10050;55.492;13.506;2023-03-23T11:19:35;6.97;;;6.33;;
19780;SDS011;10050;55.492;13.506;2023-03-23T11:24:41;8.23;;;6.27;;
19780;SDS011;10050;55.492;13.506;2023-03-23T11:27:10;7.03;;;6.33;;
19780;SDS011;10050;55.492;13.506;2023-03-23T11:29:45;5.87;;;5.30;;
19780;SDS011;10050;55.492;13.506;2023-03-23T11:32:19;8.07;;;5.80;;
19780;SDS011;10050;55.492;13.506;2023-03-23T11:34:53;8.07;;;6.13;;
19780;SDS011;10050;55.492;13.506;2023-03-23T11:39:53;5.93;;;5.43;;
19780;SDS011;10050;55.492;13.506;2023-03-23T11:42:21;6.43;;;5.70;;
19780;SDS011;10050;55.492;13.506;2023-03-23T11:44:54;6.50;;;5.97;;
19780;SDS011;10050;55.492;13.506;2023-03-23T11:47:41;7.77;;;6.37;;
19780;SDS011;10050;55.492;13.506;2023-03-23T11:50:21;6.77;;;6.10;;
19780;SDS011;10050;55.492;13.506;2023-03-23T11:52:58;8.60;;;6.00;;
19780;SDS011;10050;55.492;13.506;2023-03-23T12:01:02;10.23;;;6.30;;
19780;SDS011;10050;55.492;13.506;2023-03-23T12:06:15;12.43;;;7.03;;
19780;SDS011;10050;55.492;13.506;2023-03-23T12:09:28;9.60;;;6.13;;
19780;SDS011;10050;55.492;13.506;2023-03-23T12:14:55;6.50;;;5.57;;
19780;SDS011;10050;55.492;13.506;2023-03-23T12:23:36;7.77;;;5.30;;
19780;SDS011;10050;55.492;13.506;2023-03-23T12:26:20;7.60;;;4.37;;
19780;SDS011;10050;55.492;13.506;2023-03-23T12:38:14;7.17;;;2.93;;
19780;SDS011;10050;55.492;13.506;2023-03-23T12:43:34;5.47;;;2.70;;
19780;SDS011;10050;55.492;13.506;2023-03-23T12:49:28;9.43;;;2.33;;
19780;SDS011;10050;55.492;13.506;2023-03-23T12:52:06;4.37;;;2.10;;
19780;SDS011;10050;55.492;13.506;2023-03-23T12:54:42;6.03;;;2.07;;
19780;SDS011;10050;55.492;13.506;2023-03-23T12:57:31;8.63;;;2.30;;
19780;SDS011;10050;55.492;13.506;2023-03-23T13:00:14;6.50;;;2.37;;
19780;SDS011;10050;55.492;13.506;2023-03-23T13:05:42;7.17;;;2.00;;
19780;SDS011;10050;55.492;13.506;2023-03-23T13:08:21;11.97;;;2.40;;
19780;SDS011;10050;55.492;13.506;2023-03-23T13:10:55;6.87;;;2.20;;
19780;SDS011;10050;55.492;13.506;2023-03-23T13:13:40;5.20;;;2.10;;
19780;SDS011;10050;55.492;13.506;2023-03-23T13:16:14;8.50;;;1.87;;
19780;SDS011;10050;55.492;13.506;2023-03-23T13:24:01;8.77;;;2.37;;
19780;SDS011;10050;55.492;13.506;2023-03-23T13:26:30;8.70;;;2.20;;
19780;SDS011;10050;55.492;13.506;2023-03-23T13:29:00;6.50;;;2.33;;
19780;SDS011;10050;55.492;13.506;2023-03-23T13:31:40;7.77;;;2.37;;
19780;SDS011;10050;55.492;13.506;2023-03-23T13:34:23;9.43;;;2.87;;
19780;SDS011;10050;55.492;13.506;2023-03-23T13:44:39;8.10;;;1.90;;
19780;SDS011;10050;55.492;13.506;2023-03-23T13:47:35;11.07;;;2.77;;
19780;SDS011;10050;55.492;13.506;2023-03-23T13:50:02;10.07;;;2.73;;
19780;SDS011;10050;55.492;13.506;2023-03-23T14:08:11;8.77;;;3.10;;
19780;SDS011;10050;55.492;13.506;2023-03-23T14:13:25;9.77;;;2.40;;
19780;SDS011;10050;55.492;13.506;2023-03-23T14:21:17;12.17;;;2.33;;
19780;SDS011;10050;55.492;13.506;2023-03-23T14:23:51;11.40;;;2.67;;
19780;SDS011;10050;55.492;13.506;2023-03-23T14:26:17;8.87;;;3.23;;
19780;SDS011;10050;55.492;13.506;2023-03-23T14:28:45;12.70;;;3.17;;
19780;SDS011;10050;55.492;13.506;2023-03-23T14:31:34;10.37;;;2.50;;
19780;SDS011;10050;55.492;13.506;2023-03-23T14:34:03;10.70;;;2.83;;
19780;SDS011;10050;55.492;13.506;2023-03-23T14:36:34;13.60;;;3.53;;
19780;SDS011;10050;55.492;13.506;2023-03-23T14:39:22;9.70;;;2.93;;
19780;SDS011;10050;55.492;13.506;2023-03-23T14:41:50;11.37;;;2.90;;
19780;SDS011;10050;55.492;13.506;2023-03-23T14:44:22;11.27;;;2.40;;
19780;SDS011;10050;55.492;13.506;2023-03-23T14:46:50;11.47;;;2.57;;
19780;SDS011;10050;55.492;13.506;2023-03-23T14:49:19;11.50;;;2.80;;
19780;SDS011;10050;55.492;13.506;2023-03-23T14:51:54;10.83;;;2.97;;
19780;SDS011;10050;55.492;13.506;2023-03-23T14:54:21;10.20;;;3.07;;
19780;SDS011;10050;55.492;13.506;2023-03-23T14:56:49;19.13;;;3.33;;
19780;SDS011;10050;55.492;13.506;2023-03-23T14:59:15;12.60;;;3.00;;
19780;SDS011;10050;55.492;13.506;2023-03-23T15:01:41;9.13;;;3.07;;
19780;SDS011;10050;55.492;13.506;2023-03-23T15:04:14;12.63;;;3.10;;
19780;SDS011;10050;55.492;13.506;2023-03-23T15:06:45;18.00;;;2.97;;
19780;SDS011;10050;55.492;13.506;2023-03-23T15:09:26;9.70;;;2.33;;
19780;SDS011;10050;55.492;13.506;2023-03-23T15:12:00;9.37;;;2.43;;
19780;SDS011;10050;55.492;13.506;2023-03-23T15:14:29;10.10;;;2.60;;
19780;SDS011;10050;55.492;13.506;2023-03-23T15:16:58;10.77;;;3.20;;
19780;SDS011;10050;55.492;13.506;2023-03-23T15:19:31;11.70;;;3.10;;
19780;SDS011;10050;55.492;13.506;2023-03-23T15:22:20;8.97;;;2.40;;
19780;SDS011;10050;55.492;13.506;2023-03-23T15:28:06;10.13;;;2.27;;
19780;SDS011;10050;55.492;13.506;2023-03-23T15:30:47;9.77;;;2.70;;
19780;SDS011;10050;55.492;13.506;2023-03-23T15:33:16;12.77;;;3.27;;
19780;SDS011;10050;55.492;13.506;2023-03-23T15:35:48;13.37;;;3.40;;
19780;SDS011;10050;55.492;13.506;2023-03-23T15:38:20;8.00;;;2.40;;
19780;SDS011;10050;55.492;13.506;2023-03-23T15:40:51;9.57;;;2.23;;
19780;SDS011;10050;55.492;13.506;2023-03-23T15:43:19;9.70;;;2.50;;
19780;SDS011;10050;55.492;13.506;2023-03-23T15:48:44;10.93;;;2.27;;
19780;SDS011;10050;55.492;13.506;2023-03-23T15:51:10;11.83;;;2.50;;
19780;SDS011;10050;55.492;13.506;2023-03-23T15:53:38;9.33;;;2.50;;
19780;SDS011;10050;55.492;13.506;2023-03-23T15:56:07;7.73;;;2.60;;
19780;SDS011;10050;55.492;13.506;2023-03-23T15:58:35;10.80;;;2.07;;
19780;SDS011;10050;55.492;13.506;2023-03-23T16:01:03;8.87;;;2.67;;
19780;SDS011;10050;55.492;13.506;2023-03-23T16:03:46;12.13;;;2.27;;
19780;SDS011;10050;55.492;13.506;2023-03-23T16:06:13;9.80;;;2.40;;
19780;SDS011;10050;55.492;13.506;2023-03-23T16:08:43;10.20;;;2.40;;
19780;SDS011;10050;55.492;13.506;2023-03-23T16:11:12;12.27;;;2.67;;
19780;SDS011;10050;55.492;13.506;2023-03-23T16:13:40;5.80;;;2.37;;
19780;SDS011;10050;55.492;13.506;2023-03-23T16:16:09;9.37;;;2.37;;
19780;SDS011;10050;55.492;13.506;2023-03-23T16:18:40;9.90;;;2.87;;
19780;SDS011;10050;55.492;13.506;2023-03-23T16:21:06;6.00;;;2.10;;
19780;SDS011;10050;55.492;13.506;2023-03-23T16:23:31;9.87;;;2.47;;
19780;SDS011;10050;55.492;13.506;2023-03-23T16:25:57;6.83;;;2.27;;
19780;SDS011;10050;55.492;13.506;2023-03-23T16:28:23;9.27;;;2.60;;
19780;SDS011;10050;55.492;13.506;2023-03-23T16:30:49;10.13;;;2.33;;
19780;SDS011;10050;55.492;13.506;2023-03-23T16:33:15;9.03;;;2.60;;
19780;SDS011;10050;55.492;13.506;2023-03-23T16:35:40;6.60;;;2.07;;
19780;SDS011;10050;55.492;13.506;2023-03-23T16:38:09;7.33;;;2.20;;
19780;SDS011;10050;55.492;13.506;2023-03-23T16:40:40;10.93;;;2.10;;
19780;SDS011;10050;55.492;13.506;2023-03-23T16:43:10;7.83;;;2.17;;
19780;SDS011;10050;55.492;13.506;2023-03-23T16:45:37;8.93;;;2.20;;